• Join FlightAware (Why Join?)
  • Login
  • US Flag 
Rudolph Flight #1: Arrived! 
07:30AM EST


 

Airport Tracker/Info


-or-


 

Live Flight TrackerFlight Track Log ✈ UAL3767 ✈ 03-May-2013 ✈ KORD - KATL

Flight Track Log - Related Links

Times and Time Zones

All times are in EDT time to prevent confusion due to time zone crossing. See the UAL3767 flight status page for this flight to view local times or setup timezone preferences in your user account.

Time Position Orientation Groundspeed Altitude Reporting Facility
EDT Latitude Longitude Course Direction KTS MPH feet Rate Location/Type
11:41AM 42.0167 -87.8833 90° East 153 176 2,200  Level Chicago TRACON
11:42AM 42.0167 -87.8167 90° East 213 245 3,900 1,380 Climbing Chicago TRACON
11:43AM 41.9500 -87.8167 180° South 242 278 5,000 1,320 Climbing Chicago TRACON
11:45AM 41.8267 -87.8842 202° Southwest 253 291 8,100 1,980 Climbing Chicago Center
11:46AM 41.7406 -87.8811 178° South 259 298 11,400 2,700 Climbing Chicago Center
11:47AM 41.6664 -87.8811 180° South 265 305 13,700 1,620 Climbing Chicago Center
11:48AM 41.5819 -87.8806 180° South 298 343 14,800 1,080 Climbing Chicago Center
11:49AM 41.4842 -87.8789 179° South 343 395 16,000 1,260 Climbing Chicago Center
11:50AM 41.3803 -87.8808 181° South 363 418 17,500 1,500 Climbing Chicago Center
11:51AM 41.2731 -87.8908 184° South 376 433 19,100 1,620 Climbing Chicago Center
11:52AM 41.1678 -87.8906 180° South 378 435 20,900 1,560 Climbing Chicago Center
11:53AM 41.0617 -87.8875 179° South 379 436 22,300 1,140 Climbing Chicago Center
11:54AM 40.9519 -87.8833 178° South 389 448 23,300 960 Climbing Chicago Center
11:55AM 40.8392 -87.8800 179° South 403 464 24,300 1,140 Climbing Chicago Center
11:56AM 40.7019 -87.8753 179° South 409 471 25,700 1,200 Climbing Chicago Center
11:57AM 40.5853 -87.8725 179° South 418 481 26,800 1,020 Climbing Chicago Center
11:58AM 40.4697 -87.8692 179° South 418 481 27,800 960 Climbing Chicago Center
11:59AM 40.3519 -87.8644 178° South 423 487 28,800 960 Climbing Chicago Center
12:00PM 40.2281 -87.8619 179° South 422 486 29,800 1,020 Climbing Indianapolis Center
12:01PM 40.1125 -87.8569 178° South 419 482 31,000 1,080 Climbing Indianapolis Center
12:02PM 39.9986 -87.8511 178° South 414 476 32,100 960 Climbing Indianapolis Center
12:03PM 39.8644 -87.8444 178° South 407 468 33,000 720 Climbing Indianapolis Center
12:04PM 39.7522 -87.8400 178° South 406 467 33,700 780 Climbing Indianapolis Center
12:05PM 39.6394 -87.8347 178° South 407 468 34,700 600 Climbing Indianapolis Center
12:06PM 39.5283 -87.8303 178° South 404 465 35,000 120 Climbing Indianapolis Center
12:07PM 39.4147 -87.8258 178° South 410 472 35,000  Level Indianapolis Center
12:08PM 39.2933 -87.8200 178° South 423 487 35,000  Level Indianapolis Center
12:09PM 39.1508 -87.8147 178° South 425 489 35,000  Level Indianapolis Center
12:10PM 39.0311 -87.8089 178° South 428 493 35,000  Level Indianapolis Center
12:12PM 38.9128 -87.8031 178° South 426 490 35,000  Level Indianapolis Center
12:13PM 38.7942 -87.7981 178° South 426 490 35,000  Level Indianapolis Center
12:14PM 38.6744 -87.7944 179° South 429 494 35,000  Level Indianapolis Center
12:15PM 38.5561 -87.7894 178° South 427 491 35,000  Level Indianapolis Center
12:16PM 38.4375 -87.7839 178° South 428 493 35,000  Level Indianapolis Center
12:17PM 38.2958 -87.7789 178° South 424 488 35,000  Level Indianapolis Center
12:18PM 38.1764 -87.7733 178° South 429 494 35,000  Level Indianapolis Center
12:19PM 38.0589 -87.7689 178° South 424 488 35,000  Level Indianapolis Center
12:20PM 37.9403 -87.7578 176° South 429 494 35,000  Level Indianapolis Center
12:21PM 37.8294 -87.7017 158° South 429 494 35,000  Level Indianapolis Center
12:22PM 37.7094 -87.6278 154° Southeast 431 496 35,000  Level Indianapolis Center
12:23PM 37.6003 -87.5611 154° Southeast 431 496 35,000  Level Indianapolis Center
12:23PM 37.5622 -87.5394 156° South 429 494 35,000  Level Memphis Center
12:24PM 37.4547 -87.4753 155° Southeast 429 494 35,000  Level Memphis Center
12:25PM 37.3469 -87.4089 154° Southeast 429 494 35,000  Level Memphis Center
12:26PM 37.2389 -87.3400 153° Southeast 429 494 35,000  Level Memphis Center
12:27PM 37.1183 -87.2692 155° Southeast 429 494 35,000  Level Memphis Center
12:28PM 37.0106 -87.2031 154° Southeast 429 494 35,000  Level Memphis Center
12:29PM 36.8983 -87.1375 155° Southeast 429 494 35,000  Level Memphis Center
12:30PM 36.7883 -87.0719 154° Southeast 429 494 35,000  Level Memphis Center
12:31PM 36.6803 -87.0064 154° Southeast 429 494 35,000  Level Memphis Center
12:32PM 36.5761 -86.9308 150° Southeast 434 499 35,000  Level Memphis Center
12:33PM 36.4939 -86.8206 133° Southeast 434 499 35,000  Level Memphis Center
12:34PM 36.4178 -86.7183 133° Southeast 440 506 35,000  Level Memphis Center
12:35PM 36.3314 -86.6114 135° Southeast 446 513 35,000  Level Memphis Center
12:36PM 36.2489 -86.5097 135° Southeast 434 499 35,000  Level Memphis Center
12:37PM 36.1622 -86.4006 135° Southeast 416 479 35,000 -180 Level Memphis Center
12:38PM 36.0544 -86.3622 164° South 388 447 34,700 -600 Descending Memphis Center
12:39PM 35.9378 -86.3653 181° South 400 460 33,800 -900 Descending Memphis Center
12:40PM 35.8211 -86.3683 181° South 414 476 33,000 -300 Descending Memphis Center
12:43PM 35.5881 -86.2425 156° South 415 478 33,000  Level Atlanta Center
12:44PM 35.4933 -86.1636 146° Southeast 420 483 33,000 -300 Level Atlanta Center
12:45PM 35.3883 -86.0844 148° Southeast 433 498 32,500 -840 Descending Atlanta Center
12:46PM 35.2833 -85.9978 146° Southeast 428 493 31,400 -1,140 Descending Atlanta Center
12:47PM 35.1781 -85.9192 149° Southeast 435 501 30,300 -1,140 Descending Atlanta Center
12:48PM 35.0894 -85.8436 145° Southeast 435 501 29,200 -1,140 Descending Atlanta Center
12:49PM 34.9800 -85.7625 149° Southeast 441 507 28,100 -1,140 Descending Atlanta Center
12:50PM 34.8747 -85.6794 147° Southeast 447 514 27,000 -1,140 Descending Atlanta Center
12:51PM 34.7717 -85.5964 146° Southeast 452 520 25,900 -1,500 Descending Atlanta Center
12:52PM 34.6683 -85.5136 147° Southeast 452 520 24,000 -1,800 Descending Atlanta Center
12:53PM 34.5669 -85.4364 148° Southeast 447 514 22,300 -1,740 Descending Atlanta Center
12:54PM 34.4822 -85.3694 147° Southeast 412 474 20,600 -1,800 Descending Atlanta Center
12:55PM 34.3992 -85.3050 147° Southeast 374 430 18,700 -1,860 Descending Atlanta Center
12:56PM 34.3206 -85.2461 148° Southeast 344 396 16,900 -1,800 Descending Atlanta Center
12:57PM 34.2439 -85.1872 148° Southeast 330 380 15,100 -1,800 Descending Atlanta Center
12:58PM 34.1714 -85.1258 145° Southeast 325 374 13,300 -1,080 Descending Atlanta Center
12:59PM 34.1136 -85.0575 136° Southeast 302 348 13,000 -300 Descending Atlanta Center
01:00PM 34.0514 -84.9992 142° Southeast 289 333 12,700 -720 Descending Atlanta Center
01:01PM 33.9764 -84.9731 164° South 276 318 11,600 -1,080 Descending Atlanta Center
01:02PM 33.9036 -84.9497 165° South 276 318 10,600 -1,020 Descending Atlanta Center
01:03PM 33.8328 -84.9367 171° South 276 318 9,600 -840 Descending Atlanta Center
01:04PM 33.7536 -84.9258 174° South 271 312 9,000 -300 Descending Atlanta Center
01:05PM 33.6806 -84.9175 175° South 266 306 9,000 -600 Level Atlanta Center
01:06PM 33.6333 -84.8333 124° Southeast 241 277 7,700 -840 Descending Atlanta TRACON
01:07PM 33.6333 -84.7667 90° East 184 212 7,100 -1,020 Descending Atlanta TRACON
01:08PM 33.6333 -84.7167 90° East 174 200 5,800 -1,380 Descending Atlanta TRACON
01:09PM 33.6333 -84.6667 90° East 173 199 4,500 -1,140 Descending Atlanta TRACON
01:10PM 33.6333 -84.6167 90° East 176 203 3,700 -900 Descending Atlanta TRACON
01:11PM 33.6333 -84.5500 90° East 175 201 2,800 -900 Descending Atlanta TRACON
01:12PM 33.6333 -84.5000 90° East 141 162 2,000 -780 Descending Atlanta TRACON
01:13PM 33.6333 -84.4500 90° East 134 154 1,300 -720 Descending Atlanta TRACON
01:15PM 33.6367 -84.4279 90° East  Level Estimated
01:22PM 33.6367 -84.4279 90° East  Level Estimated